Time;durP1;ratioP1;P1;durP2;ratioP2;P2;SDS_P1;SDS_P2;PMS_P1;PMS_P2;Temp;Humidity;BMP_temperature;BMP_pressure;BME280_temperature;BME280_humidity;BME280_pressure;Samples;Min_cycle;Max_cycle;Signal;HPM_P1;HPM_P2
2020/12/22 00:02:01;;;;;;;8.30;6.97;;;5.40;99.90;;;;;;4974453;28;20183;-47
2020/12/22 00:04:28;;;;;;;7.95;6.80;;;5.50;99.90;;;;;;4974648;28;20667;-50
2020/12/22 00:06:58;;;;;;;6.55;5.85;;;5.40;99.90;;;;;;4974259;28;20257;-49
2020/12/22 00:09:26;;;;;;;9.40;6.40;;;5.50;99.90;;;;;;4973259;28;20206;-52
2020/12/22 00:11:53;;;;;;;10.82;8.20;;;5.50;99.90;;;;;;4973956;28;20182;-48
2020/12/22 00:14:20;;;;;;;11.80;6.63;;;5.50;99.90;;;;;;4973927;28;20208;-46
2020/12/22 00:16:47;;;;;;;12.18;6.82;;;5.60;99.90;;;;;;4974106;28;20262;-47
2020/12/22 00:19:15;;;;;;;9.43;7.75;;;5.60;99.90;;;;;;4973885;28;20666;-47
2020/12/22 00:21:42;;;;;;;9.32;6.65;;;5.60;99.90;;;;;;4973793;28;20186;-50
2020/12/22 00:24:09;;;;;;;12.57;6.82;;;5.60;99.90;;;;;;4973734;28;20175;-48
2020/12/22 00:26:37;;;;;;;6.72;5.40;;;5.60;99.90;;;;;;4973727;28;20574;-53
2020/12/22 00:29:05;;;;;;;9.38;6.50;;;5.60;99.90;;;;;;4973805;28;20203;-50
2020/12/22 00:31:36;;;;;;;11.57;7.38;;;5.60;99.90;;;;;;4973748;28;20180;-51
2020/12/22 00:34:03;;;;;;;7.93;5.32;;;5.70;99.90;;;;;;4973869;28;20176;-51
2020/12/22 00:36:30;;;;;;;8.48;6.63;;;5.70;99.90;;;;;;4972362;28;20213;-46
2020/12/22 00:38:57;;;;;;;11.48;7.25;;;5.70;99.90;;;;;;4972602;28;20643;-44
2020/12/22 00:41:24;;;;;;;13.25;7.32;;;5.70;99.90;;;;;;4973437;28;20197;-44
2020/12/22 00:43:52;;;;;;;10.68;6.97;;;5.80;99.90;;;;;;4973198;28;20579;-43
2020/12/22 00:46:20;;;;;;;9.60;5.85;;;5.80;99.90;;;;;;4975876;28;20203;-47
2020/12/22 00:48:48;;;;;;;10.82;6.55;;;5.80;99.90;;;;;;4974903;28;20198;-43
2020/12/22 00:51:23;;;;;;;11.63;6.35;;;5.80;99.90;;;;;;4975988;28;20190;-47
2020/12/22 00:53:54;;;;;;;14.70;7.53;;;5.80;99.90;;;;;;4975041;28;20273;-45
2020/12/22 00:56:22;;;;;;;9.85;7.35;;;5.80;99.90;;;;;;4974670;28;20226;-48
2020/12/22 00:58:53;;;;;;;8.02;6.13;;;5.80;99.90;;;;;;4974829;28;20195;-44
2020/12/22 01:01:21;;;;;;;11.77;7.68;;;5.80;99.90;;;;;;4976349;28;20250;-50
2020/12/22 01:03:48;;;;;;;10.55;6.38;;;5.80;99.90;;;;;;4976313;28;20210;-43
2020/12/22 01:06:16;;;;;;;12.48;7.47;;;5.80;99.90;;;;;;4976189;28;20211;-44
2020/12/22 01:08:43;;;;;;;11.48;7.55;;;5.80;99.90;;;;;;4991975;23;20226;-78
2020/12/22 01:11:11;;;;;;;9.43;6.55;;;5.80;99.90;;;;;;4979011;28;20180;-76
2020/12/22 01:13:38;;;;;;;10.60;6.22;;;5.90;99.90;;;;;;4979397;28;20199;-75
2020/12/22 01:16:07;;;;;;;12.00;7.10;;;5.90;99.90;;;;;;4981722;28;20199;-74
2020/12/22 01:18:44;;;;;;;8.60;6.40;;;5.90;99.90;;;;;;4981533;28;20235;-75
2020/12/22 01:21:18;;;;;;;6.70;5.47;;;5.90;99.90;;;;;;4983500;28;20666;-75
2020/12/22 01:23:45;;;;;;;8.63;6.78;;;5.90;99.90;;;;;;4985389;28;20721;-76
2020/12/22 01:26:12;;;;;;;10.50;7.65;;;5.90;99.90;;;;;;4985625;28;20686;-75
2020/12/22 01:28:39;;;;;;;9.05;7.43;;;5.90;99.90;;;;;;4980812;28;20212;-75
2020/12/22 01:31:07;;;;;;;9.35;6.65;;;5.90;99.90;;;;;;4979375;28;20187;-76
2020/12/22 01:33:34;;;;;;;13.27;7.57;;;6.00;99.90;;;;;;4980010;28;20187;-75
2020/12/22 01:36:02;;;;;;;16.50;7.25;;;6.00;99.90;;;;;;4979028;28;20188;-77
2020/12/22 01:38:29;;;;;;;12.07;8.80;;;6.10;99.90;;;;;;4981869;28;20211;-76
2020/12/22 01:40:56;;;;;;;5.95;4.72;;;6.00;99.90;;;;;;4988938;28;20207;-76
2020/12/22 01:43:23;;;;;;;10.43;7.60;;;6.10;99.90;;;;;;5000108;28;20188;-76
2020/12/22 01:45:50;;;;;;;7.47;6.55;;;6.10;99.90;;;;;;4999670;28;20533;-75
2020/12/22 01:48:19;;;;;;;12.20;7.65;;;6.10;99.90;;;;;;5000081;28;20207;-76
2020/12/22 01:50:46;;;;;;;9.07;6.32;;;6.10;99.90;;;;;;4997958;28;20184;-76
2020/12/22 01:53:14;;;;;;;11.63;5.05;;;6.20;99.90;;;;;;4998909;28;20196;-79
2020/12/22 01:55:42;;;;;;;10.00;7.13;;;6.20;99.90;;;;;;4998800;28;20190;-77
2020/12/22 01:58:09;;;;;;;17.42;6.07;;;6.20;99.90;;;;;;4999773;28;20483;-77
2020/12/22 02:00:37;;;;;;;11.45;6.57;;;6.30;99.90;;;;;;4999160;28;20194;-76
2020/12/22 02:03:05;;;;;;;11.23;6.60;;;6.30;99.90;;;;;;4999604;28;20164;-78
2020/12/22 02:05:36;;;;;;;11.35;7.60;;;6.30;99.90;;;;;;4998313;28;20271;-78
2020/12/22 02:08:03;;;;;;;12.30;8.43;;;6.40;99.90;;;;;;4990634;28;20230;-74
2020/12/22 02:10:30;;;;;;;5.25;3.95;;;6.40;99.90;;;;;;4993480;28;20198;-76
2020/12/22 02:12:58;;;;;;;10.23;6.97;;;6.40;99.90;;;;;;4990938;28;20187;-74
2020/12/22 02:15:25;;;;;;;11.73;7.63;;;6.40;99.90;;;;;;4991126;28;20176;-74
2020/12/22 02:17:52;;;;;;;10.20;7.43;;;6.40;99.90;;;;;;4990280;28;20211;-75
2020/12/22 02:20:20;;;;;;;10.50;6.18;;;6.30;99.90;;;;;;4988304;28;20187;-72
2020/12/22 02:22:48;;;;;;;18.00;9.73;;;6.30;99.90;;;;;;4986928;28;20202;-75
2020/12/22 02:25:16;;;;;;;9.27;6.28;;;6.30;99.90;;;;;;4986491;28;20200;-77
2020/12/22 02:27:46;;;;;;;12.55;7.90;;;6.20;99.90;;;;;;4986335;28;20238;-76
2020/12/22 02:30:18;;;;;;;7.57;5.47;;;6.10;99.90;;;;;;4982492;28;20199;-76
2020/12/22 02:32:48;;;;;;;16.83;7.70;;;6.10;99.90;;;;;;4984674;28;20210;-76
2020/12/22 02:35:16;;;;;;;8.98;6.20;;;6.20;99.90;;;;;;4992745;28;20184;-75
2020/12/22 02:37:43;;;;;;;8.85;5.90;;;6.30;99.90;;;;;;4990591;28;20578;-75
2020/12/22 02:40:11;;;;;;;9.80;6.95;;;6.20;99.90;;;;;;4986698;28;20183;-75
2020/12/22 02:42:38;;;;;;;8.18;6.32;;;6.30;99.90;;;;;;4983023;28;20204;-75
2020/12/22 02:45:06;;;;;;;12.90;6.88;;;6.30;99.90;;;;;;4978367;28;20545;-74
2020/12/22 02:47:33;;;;;;;8.45;5.10;;;6.30;99.90;;;;;;4976467;28;20219;-74
2020/12/22 02:50:00;;;;;;;12.40;7.10;;;6.30;99.90;;;;;;4977424;28;20555;-76
2020/12/22 02:52:27;;;;;;;14.40;7.85;;;6.30;99.90;;;;;;4976428;28;20179;-76
2020/12/22 02:54:54;;;;;;;13.50;7.70;;;6.30;99.90;;;;;;4976161;28;20187;-76
2020/12/22 02:57:22;;;;;;;10.52;5.93;;;6.30;99.90;;;;;;4978353;28;20203;-76
2020/12/22 02:59:49;;;;;;;15.50;7.43;;;6.30;99.90;;;;;;4985311;28;20209;-76
2020/12/22 03:02:16;;;;;;;11.93;5.85;;;6.30;99.90;;;;;;4995034;28;20183;-75
2020/12/22 03:04:43;;;;;;;11.48;7.00;;;6.30;99.90;;;;;;4997863;28;20263;-77
2020/12/22 03:07:10;;;;;;;12.07;6.95;;;6.40;99.90;;;;;;4998475;28;20196;-77
2020/12/22 03:09:37;;;;;;;8.65;6.60;;;6.40;99.90;;;;;;4998026;28;20192;-77
2020/12/22 03:12:06;;;;;;;11.80;7.15;;;6.40;99.90;;;;;;4996213;28;20176;-76
2020/12/22 03:14:33;;;;;;;13.57;7.70;;;6.40;99.90;;;;;;4989020;28;20634;-75
2020/12/22 03:17:00;;;;;;;9.18;6.85;;;6.30;99.90;;;;;;4986148;28;20172;-76
2020/12/22 03:19:30;;;;;;;10.32;6.18;;;6.40;99.90;;;;;;4981314;28;20179;-75
2020/12/22 03:21:57;;;;;;;10.77;6.70;;;6.30;99.90;;;;;;4979330;28;20184;-76
2020/12/22 03:24:24;;;;;;;11.35;8.40;;;6.30;99.90;;;;;;4977437;28;20234;-75
2020/12/22 03:26:51;;;;;;;8.82;5.88;;;6.20;99.90;;;;;;4977422;28;20242;-76
2020/12/22 03:29:18;;;;;;;14.35;7.15;;;6.20;99.90;;;;;;4976047;28;20215;-75
2020/12/22 03:31:46;;;;;;;9.52;7.63;;;6.30;99.90;;;;;;4975048;28;20263;-76
2020/12/22 03:34:16;;;;;;;12.98;7.50;;;6.20;99.90;;;;;;4973978;28;20242;-76
2020/12/22 03:36:44;;;;;;;9.10;5.70;;;6.30;99.90;;;;;;4973909;28;20191;-76
2020/12/22 03:39:14;;;;;;;10.88;6.18;;;6.30;99.90;;;;;;4973498;28;20310;-75
2020/12/22 03:41:41;;;;;;;12.85;7.18;;;6.30;99.90;;;;;;4973726;28;20642;-76
2020/12/22 03:44:08;;;;;;;11.15;7.28;;;6.30;99.90;;;;;;4975090;28;20219;-76
2020/12/22 03:46:36;;;;;;;13.52;8.02;;;6.40;99.90;;;;;;4975534;28;20207;-75
2020/12/22 03:49:04;;;;;;;8.32;7.43;;;6.40;99.90;;;;;;4975109;28;20270;-74
2020/12/22 03:51:31;;;;;;;13.90;8.23;;;6.40;99.90;;;;;;4974863;28;20180;-75
2020/12/22 03:53:59;;;;;;;10.80;6.95;;;6.40;99.90;;;;;;4975541;28;20258;-76
2020/12/22 03:56:26;;;;;;;14.68;9.43;;;6.40;99.90;;;;;;4974535;28;20172;-76
2020/12/22 03:58:53;;;;;;;12.00;6.20;;;6.40;99.90;;;;;;4974943;28;20223;-76
2020/12/22 04:01:20;;;;;;;11.43;7.68;;;6.40;99.90;;;;;;4975422;28;20180;-74
2020/12/22 04:03:47;;;;;;;10.00;7.60;;;6.40;99.90;;;;;;4974874;28;20270;-75
2020/12/22 04:06:15;;;;;;;12.40;7.68;;;6.40;99.90;;;;;;4975288;28;20183;-78
2020/12/22 04:08:43;;;;;;;12.38;6.13;;;6.40;99.90;;;;;;4974965;28;20219;-76
2020/12/22 04:11:10;;;;;;;11.90;6.28;;;6.40;99.90;;;;;;4974651;28;20180;-75
2020/12/22 04:13:37;;;;;;;8.60;7.30;;;6.40;99.90;;;;;;4974418;28;20210;-76
2020/12/22 04:16:06;;;;;;;11.80;7.15;;;6.50;99.90;;;;;;4974323;28;20574;-76
2020/12/22 04:18:34;;;;;;;9.73;6.85;;;6.50;99.90;;;;;;4974035;28;20211;-75
2020/12/22 04:21:01;;;;;;;7.13;5.15;;;6.60;99.90;;;;;;4973264;28;20187;-78
2020/12/22 04:23:29;;;;;;;12.48;7.68;;;6.60;99.90;;;;;;4973778;28;20199;-75
2020/12/22 04:25:56;;;;;;;10.52;6.60;;;6.60;99.90;;;;;;4974223;28;20187;-75
2020/12/22 04:28:23;;;;;;;11.65;7.13;;;6.60;99.90;;;;;;4973909;28;20706;-75
2020/12/22 04:30:50;;;;;;;13.85;6.85;;;6.60;99.90;;;;;;4974622;28;20525;-76
2020/12/22 04:33:17;;;;;;;11.38;8.35;;;6.60;99.90;;;;;;4974003;28;20195;-76
2020/12/22 04:35:45;;;;;;;10.32;6.90;;;6.60;99.90;;;;;;4973874;28;20237;-75
2020/12/22 04:38:12;;;;;;;8.70;6.15;;;6.70;99.90;;;;;;4973054;28;20215;-76
2020/12/22 04:40:39;;;;;;;9.80;7.30;;;6.70;99.90;;;;;;4972864;28;20558;-77
2020/12/22 04:43:07;;;;;;;9.90;6.63;;;6.70;99.90;;;;;;4974381;28;20211;-76
2020/12/22 04:45:34;;;;;;;9.35;6.68;;;6.70;99.90;;;;;;4972870;28;20725;-77
2020/12/22 04:48:01;;;;;;;8.27;4.90;;;6.70;99.90;;;;;;4973911;28;20266;-78
2020/12/22 04:50:29;;;;;;;9.75;5.57;;;6.80;99.90;;;;;;4974181;28;20191;-76
2020/12/22 04:52:57;;;;;;;8.20;6.47;;;6.80;99.90;;;;;;4973924;28;20192;-77
2020/12/22 04:55:24;;;;;;;11.55;6.93;;;6.80;99.90;;;;;;4972565;28;20192;-77
2020/12/22 04:57:54;;;;;;;10.32;7.80;;;6.80;99.90;;;;;;4972667;28;20219;-75
2020/12/22 05:00:21;;;;;;;6.28;4.80;;;6.80;99.90;;;;;;4974372;28;20772;-76
2020/12/22 05:02:50;;;;;;;8.57;6.30;;;6.80;99.90;;;;;;4974254;28;20268;-77
2020/12/22 05:05:19;;;;;;;8.60;6.35;;;6.90;99.90;;;;;;4975766;28;20188;-76
2020/12/22 05:07:46;;;;;;;12.02;7.90;;;6.90;99.90;;;;;;4977321;28;20219;-76
2020/12/22 05:10:14;;;;;;;12.77;8.00;;;7.00;99.90;;;;;;4974540;28;20180;-76
2020/12/22 05:12:42;;;;;;;8.18;5.75;;;7.00;99.90;;;;;;4974265;28;20187;-76
2020/12/22 05:15:11;;;;;;;12.13;8.55;;;7.00;99.90;;;;;;4974304;28;20219;-77
2020/12/22 05:17:42;;;;;;;9.65;6.45;;;7.00;99.90;;;;;;4973961;28;20625;-76
2020/12/22 05:20:13;;;;;;;10.20;5.55;;;7.00;99.90;;;;;;4974021;28;20218;-75
2020/12/22 05:22:41;;;;;;;8.05;5.53;;;7.10;99.90;;;;;;4973924;28;20635;-77
2020/12/22 05:25:08;;;;;;;11.85;4.95;;;7.10;99.90;;;;;;4974573;28;20175;-77
2020/12/22 05:27:36;;;;;;;9.35;5.00;;;7.10;99.90;;;;;;4974058;28;20212;-76
2020/12/22 05:30:05;;;;;;;8.60;5.53;;;7.10;99.90;;;;;;4973194;28;20196;-75
2020/12/22 05:32:34;;;;;;;10.38;6.57;;;7.20;99.90;;;;;;4985474;28;20176;-76
2020/12/22 05:35:01;;;;;;;9.07;6.53;;;7.20;99.90;;;;;;4977130;28;20200;-76
2020/12/22 05:37:28;;;;;;;8.13;5.68;;;7.20;99.90;;;;;;4975614;28;20222;-74
2020/12/22 05:39:55;;;;;;;8.85;6.20;;;7.30;99.90;;;;;;4977016;28;20182;-76
2020/12/22 05:42:22;;;;;;;6.80;4.80;;;7.20;99.90;;;;;;4977193;28;20176;-76
2020/12/22 05:44:51;;;;;;;10.07;6.43;;;7.20;99.90;;;;;;4977289;28;20180;-76
2020/12/22 05:47:20;;;;;;;8.07;5.10;;;7.30;99.90;;;;;;4975651;28;20314;-76
2020/12/22 05:49:56;;;;;;;13.57;5.90;;;7.30;99.90;;;;;;4979167;28;20195;-75
2020/12/22 05:52:24;;;;;;;9.85;5.07;;;7.40;99.90;;;;;;4981901;28;20180;-77
2020/12/22 05:54:53;;;;;;;9.02;5.22;;;7.40;99.90;;;;;;4982652;28;20196;-73
2020/12/22 05:57:24;;;;;;;9.43;5.65;;;7.40;99.90;;;;;;4982870;28;20171;-75
2020/12/22 05:59:52;;;;;;;8.85;4.15;;;7.40;99.90;;;;;;4983113;28;20211;-74
2020/12/22 06:02:27;;;;;;;8.38;5.13;;;7.40;99.90;;;;;;4983281;28;20191;-75
2020/12/22 06:04:56;;;;;;;5.65;3.80;;;7.50;99.90;;;;;;4977463;28;20643;-76
2020/12/22 06:07:23;;;;;;;9.02;4.75;;;7.60;99.90;;;;;;4976746;28;20689;-75
2020/12/22 06:09:51;;;;;;;4.88;3.80;;;7.60;99.90;;;;;;4976712;28;20176;-75
2020/12/22 06:12:19;;;;;;;5.53;4.30;;;7.60;99.90;;;;;;4976477;28;20187;-76
2020/12/22 06:14:49;;;;;;;7.32;5.40;;;7.60;99.90;;;;;;4977064;28;20242;-76
2020/12/22 06:17:17;;;;;;;8.88;5.30;;;7.60;99.90;;;;;;4976945;28;20263;-76
2020/12/22 06:19:45;;;;;;;6.78;5.60;;;7.70;99.90;;;;;;4976756;28;20190;-75
2020/12/22 06:22:15;;;;;;;9.98;4.88;;;7.70;99.90;;;;;;4975869;28;20588;-74
2020/12/22 06:24:44;;;;;;;4.22;3.70;;;7.70;99.90;;;;;;4977322;28;20179;-75
2020/12/22 06:27:13;;;;;;;5.03;3.72;;;7.80;99.90;;;;;;4975757;28;20239;-75
2020/12/22 06:29:42;;;;;;;6.10;4.88;;;7.80;99.90;;;;;;4975474;28;20250;-75
2020/12/22 06:32:24;;;;;;;8.00;4.25;;;7.80;99.90;;;;;;4974429;28;20192;-76
2020/12/22 06:34:54;;;;;;;4.07;3.58;;;7.90;99.90;;;;;;4975771;28;20187;-77
2020/12/22 06:37:23;;;;;;;4.70;3.63;;;7.90;99.90;;;;;;4977550;28;20179;-78
2020/12/22 06:39:52;;;;;;;6.00;4.85;;;7.90;99.90;;;;;;4978292;28;20180;-78
2020/12/22 06:42:50;;;;;;;4.88;3.97;;;7.90;99.90;;;;;;4977719;28;20549;-78
2020/12/22 06:45:25;;;;;;;3.97;3.58;;;7.90;99.90;;;;;;4978218;28;20199;-77
2020/12/22 06:47:59;;;;;;;6.03;3.33;;;8.00;99.90;;;;;;4976499;28;20254;-77
2020/12/22 06:50:39;;;;;;;5.45;3.35;;;8.00;99.90;;;;;;4976563;28;20212;-76
2020/12/22 06:53:28;;;;;;;4.68;3.42;;;8.00;99.90;;;;;;4975660;28;20316;-77
2020/12/22 06:55:55;;;;;;;7.47;4.50;;;8.00;99.90;;;;;;4975898;28;20195;-77
2020/12/22 06:58:39;;;;;;;5.00;4.15;;;8.10;99.90;;;;;;4975267;28;20219;-79
2020/12/22 07:01:30;;;;;;;5.60;4.57;;;8.10;99.90;;;;;;4978772;28;20175;-76
2020/12/22 07:04:27;;;;;;;4.57;3.58;;;8.20;99.90;;;;;;4981018;28;20593;-78
2020/12/22 07:06:57;;;;;;;8.30;3.72;;;8.30;99.90;;;;;;4918976;29;20242;-77
2020/12/22 07:09:30;;;;;;;4.65;3.60;;;8.30;99.90;;;;;;5002868;23;20235;-79
2020/12/22 07:12:10;;;;;;;5.07;3.08;;;8.30;99.90;;;;;;4986331;28;20191;-79
2020/12/22 07:14:39;;;;;;;4.07;2.75;;;8.40;99.90;;;;;;4985994;28;20183;-80
2020/12/22 07:17:12;;;;;;;4.80;3.10;;;8.40;99.90;;;;;;4986291;28;20199;-79
2020/12/22 07:19:44;;;;;;;3.50;3.15;;;8.50;99.90;;;;;;4977935;28;20226;-81
2020/12/22 07:22:13;;;;;;;7.65;4.70;;;8.60;99.90;;;;;;4966429;28;20530;-79
2020/12/22 07:24:41;;;;;;;3.00;2.47;;;8.60;99.90;;;;;;4967876;28;20255;-80
2020/12/22 07:27:09;;;;;;;4.80;3.60;;;8.70;99.90;;;;;;4970595;29;20703;-80
2020/12/22 07:29:37;;;;;;;5.82;5.13;;;8.70;99.90;;;;;;4966908;28;20219;-80
2020/12/22 07:32:04;;;;;;;5.38;4.93;;;8.80;99.90;;;;;;4970175;28;20566;-81
2020/12/22 07:34:32;;;;;;;5.45;4.95;;;8.80;99.90;;;;;;4974290;28;20196;-81
2020/12/22 07:37:04;;;;;;;6.60;5.25;;;8.90;99.90;;;;;;4965113;28;20191;-79
2020/12/22 07:39:32;;;;;;;3.90;3.60;;;8.90;99.90;;;;;;4981033;28;20298;-80
2020/12/22 07:42:11;;;;;;;3.40;3.10;;;8.90;99.90;;;;;;4980834;28;20527;-81
2020/12/22 07:44:39;;;;;;;3.75;3.40;;;9.00;99.90;;;;;;4984981;28;20184;-81
2020/12/22 07:47:08;;;;;;;3.60;3.30;;;9.00;99.90;;;;;;4982119;28;20215;-79
2020/12/22 07:49:35;;;;;;;5.40;2.70;;;9.00;99.90;;;;;;4982623;28;20219;-80
2020/12/22 07:52:03;;;;;;;3.53;3.22;;;9.10;99.90;;;;;;4986884;28;20187;-79
2020/12/22 07:54:30;;;;;;;3.80;3.20;;;9.00;99.90;;;;;;4966298;28;20188;-81
2020/12/22 07:56:59;;;;;;;3.70;2.35;;;9.10;99.90;;;;;;4943114;29;20195;-81
2020/12/22 07:59:28;;;;;;;6.55;3.28;;;9.10;99.90;;;;;;4942438;29;20216;-80
2020/12/22 08:01:55;;;;;;;3.25;2.95;;;9.10;99.90;;;;;;4947749;29;20215;-80
2020/12/22 08:04:25;;;;;;;3.03;2.72;;;9.20;99.90;;;;;;4940525;29;20276;-77
2020/12/22 08:06:57;;;;;;;4.40;3.70;;;9.20;99.90;;;;;;4974944;28;20536;-79
2020/12/22 08:09:26;;;;;;;4.55;4.15;;;9.30;99.90;;;;;;4976099;28;20231;-78
2020/12/22 08:11:55;;;;;;;12.90;3.33;;;9.30;99.90;;;;;;4962869;28;20188;-80
2020/12/22 08:14:23;;;;;;;3.47;2.60;;;9.40;99.90;;;;;;4965022;28;20274;-78
2020/12/22 08:16:56;;;;;;;5.60;5.10;;;9.40;99.90;;;;;;4962456;28;20737;-80
2020/12/22 08:19:24;;;;;;;4.78;4.38;;;9.40;99.90;;;;;;4968142;28;20219;-79
2020/12/22 08:21:56;;;;;;;8.07;7.28;;;9.50;99.90;;;;;;4961992;28;20188;-77
2020/12/22 08:24:24;;;;;;;7.75;7.05;;;9.50;99.90;;;;;;4960126;28;20243;-81
2020/12/22 08:26:52;;;;;;;6.88;6.38;;;9.60;99.90;;;;;;4965385;28;20207;-81
2020/12/22 08:29:19;;;;;;;6.60;6.05;;;9.60;99.90;;;;;;4962260;28;20211;-80
2020/12/22 08:31:47;;;;;;;9.38;8.48;;;9.70;99.90;;;;;;4959998;28;20663;-81
2020/12/22 08:34:17;;;;;;;9.43;8.52;;;9.70;99.90;;;;;;4961851;28;20180;-79
2020/12/22 08:36:46;;;;;;;8.20;7.50;;;9.70;99.90;;;;;;4960840;28;20180;-81
2020/12/22 08:39:18;;;;;;;7.13;6.53;;;9.70;99.90;;;;;;4969530;28;20210;-79
2020/12/22 08:41:47;;;;;;;7.93;7.22;;;9.70;99.90;;;;;;4982811;28;20207;-82
2020/12/22 08:44:15;;;;;;;9.98;9.18;;;9.80;99.90;;;;;;4982159;28;20222;-79
2020/12/22 08:46:44;;;;;;;9.27;8.57;;;9.80;99.90;;;;;;4982071;28;20214;-79
2020/12/22 08:49:17;;;;;;;5.50;5.07;;;9.90;99.90;;;;;;4981629;28;20219;-79
2020/12/22 08:51:45;;;;;;;7.05;6.40;;;10.00;99.90;;;;;;4973863;28;20191;-80
2020/12/22 08:54:13;;;;;;;9.65;8.82;;;10.00;99.90;;;;;;4984598;28;20191;-79
2020/12/22 08:56:41;;;;;;;6.63;6.03;;;10.10;99.90;;;;;;4984642;28;20610;-78
2020/12/22 08:59:09;;;;;;;4.05;3.72;;;10.10;99.90;;;;;;4971617;28;20216;-81
2020/12/22 09:01:41;;;;;;;3.75;3.10;;;10.10;99.90;;;;;;4966899;28;20196;-81
2020/12/22 09:04:09;;;;;;;3.95;3.65;;;10.20;99.90;;;;;;4977667;28;20202;-81
2020/12/22 09:06:42;;;;;;;2.53;2.33;;;10.30;99.90;;;;;;4990857;28;20180;-80
2020/12/22 09:09:16;;;;;;;1.52;1.23;;;10.20;99.90;;;;;;4993301;28;20238;-79
2020/12/22 09:11:46;;;;;;;1.58;1.48;;;10.30;99.90;;;;;;4994198;28;20196;-80
2020/12/22 09:14:15;;;;;;;2.63;1.80;;;10.20;99.90;;;;;;4992822;28;20184;-80
2020/12/22 09:16:55;;;;;;;1.42;1.02;;;10.20;99.90;;;;;;4992567;28;20199;-79
2020/12/22 09:19:28;;;;;;;2.40;0.90;;;10.30;99.90;;;;;;4993283;28;20219;-80
2020/12/22 09:22:02;;;;;;;1.40;0.70;;;10.40;99.90;;;;;;4989267;28;20239;-79
2020/12/22 09:24:31;;;;;;;1.20;0.93;;;10.50;99.90;;;;;;4970071;28;20204;-79
2020/12/22 09:27:00;;;;;;;2.10;1.40;;;10.50;99.90;;;;;;4971319;28;20405;-79
2020/12/22 09:29:28;;;;;;;3.80;2.50;;;10.50;99.90;;;;;;4969385;28;20479;-79
2020/12/22 09:31:57;;;;;;;2.80;1.80;;;10.50;99.90;;;;;;4970619;29;20497;-79
2020/12/22 09:34:26;;;;;;;1.95;1.10;;;10.50;99.90;;;;;;4970961;28;20419;-80
2020/12/22 09:36:55;;;;;;;1.10;0.80;;;10.60;99.90;;;;;;4971231;28;20212;-80
2020/12/22 09:39:24;;;;;;;2.13;0.70;;;10.70;99.90;;;;;;4970099;29;20446;-80
2020/12/22 09:41:52;;;;;;;1.25;1.00;;;10.70;99.90;;;;;;4968966;29;20458;-79
2020/12/22 09:44:20;;;;;;;1.67;0.90;;;10.80;99.90;;;;;;4965795;29;20197;-79
2020/12/22 09:46:49;;;;;;;1.00;0.90;;;10.90;99.90;;;;;;4963631;28;20436;-81
2020/12/22 09:49:16;;;;;;;2.37;1.10;;;10.90;99.90;;;;;;4966508;29;20508;-79
2020/12/22 09:51:44;;;;;;;1.10;1.00;;;11.00;99.90;;;;;;4958442;29;20386;-82
2020/12/22 09:54:19;;;;;;;3.50;1.00;;;11.10;99.90;;;;;;4960393;29;20459;-81
2020/12/22 09:56:47;;;;;;;1.50;1.20;;;11.10;99.90;;;;;;4965439;29;20424;-78
2020/12/22 09:59:15;;;;;;;1.10;0.90;;;11.10;99.90;;;;;;4971761;28;20435;-78
2020/12/22 10:01:43;;;;;;;1.70;1.40;;;11.20;99.90;;;;;;4974726;29;20428;-78
2020/12/22 10:04:11;;;;;;;1.20;0.80;;;11.20;99.90;;;;;;4970116;28;20431;-79
2020/12/22 10:06:39;;;;;;;1.17;0.70;;;11.20;99.90;;;;;;4970646;29;20395;-78
2020/12/22 10:09:06;;;;;;;1.20;1.00;;;11.20;99.90;;;;;;4971420;29;20510;-78
2020/12/22 10:11:35;;;;;;;1.90;1.20;;;11.20;99.90;;;;;;4973119;28;20436;-80
2020/12/22 10:14:04;;;;;;;1.00;0.80;;;11.20;99.90;;;;;;4966498;28;20502;-80
2020/12/22 10:16:31;;;;;;;3.20;1.20;;;11.20;99.90;;;;;;4970508;28;20545;-80
2020/12/22 10:18:58;;;;;;;1.00;0.70;;;11.30;99.90;;;;;;4975076;28;20599;-78
2020/12/22 10:21:26;;;;;;;1.33;1.00;;;11.30;99.90;;;;;;4975426;28;20412;-80
2020/12/22 10:23:59;;;;;;;1.13;0.70;;;11.40;99.90;;;;;;4974857;28;20428;-81
2020/12/22 10:26:28;;;;;;;2.23;1.20;;;11.50;99.90;;;;;;4970457;29;20479;-81
2020/12/22 10:28:55;;;;;;;1.00;0.90;;;11.40;99.90;;;;;;4968822;28;20453;-81
2020/12/22 10:31:26;;;;;;;2.60;1.17;;;11.40;99.90;;;;;;4981762;28;20435;-82
2020/12/22 10:33:56;;;;;;;1.03;0.67;;;11.40;99.90;;;;;;4983650;28;20402;-82
2020/12/22 10:36:24;;;;;;;1.60;1.50;;;11.40;99.90;;;;;;4983617;28;20421;-82
2020/12/22 10:38:52;;;;;;;3.33;1.03;;;11.50;99.90;;;;;;4982643;28;20452;-81
2020/12/22 10:41:26;;;;;;;2.27;1.10;;;11.40;99.90;;;;;;4984506;28;20410;-82
2020/12/22 10:43:55;;;;;;;1.37;1.20;;;11.50;99.90;;;;;;4968189;28;20438;-81
2020/12/22 10:46:24;;;;;;;1.80;1.20;;;11.40;99.90;;;;;;4967058;29;20954;-79
2020/12/22 10:48:51;;;;;;;1.13;0.90;;;11.50;99.90;;;;;;4968023;28;20461;-82
2020/12/22 10:51:18;;;;;;;1.20;0.93;;;11.60;99.90;;;;;;4964727;28;20432;-80
2020/12/22 10:53:45;;;;;;;1.93;0.80;;;11.70;99.90;;;;;;4965815;28;20394;-79
2020/12/22 10:56:16;;;;;;;1.73;0.93;;;11.70;99.90;;;;;;4982144;28;20424;-79
2020/12/22 10:58:44;;;;;;;1.67;0.83;;;11.70;99.90;;;;;;4982599;28;20442;-81
2020/12/22 11:01:14;;;;;;;1.63;1.40;;;11.70;99.90;;;;;;4980506;28;20430;-81
2020/12/22 11:03:42;;;;;;;1.30;1.03;;;11.70;99.90;;;;;;4981474;28;20433;-83
2020/12/22 11:06:38;;;;;;;1.03;0.70;;;11.60;99.90;;;;;;4981431;28;20397;-80
2020/12/22 11:09:05;;;;;;;1.00;0.70;;;11.70;99.90;;;;;;4944723;29;20488;-79
2020/12/22 11:11:36;;;;;;;1.93;1.17;;;11.80;99.90;;;;;;4942595;29;20399;-81
2020/12/22 11:14:05;;;;;;;2.43;0.90;;;11.90;99.90;;;;;;4970327;28;20421;-79
2020/12/22 11:16:35;;;;;;;1.30;0.83;;;12.00;99.90;;;;;;4970682;28;20463;-81
2020/12/22 11:19:02;;;;;;;1.20;0.93;;;12.00;99.90;;;;;;4983645;28;20419;-78
2020/12/22 11:21:31;;;;;;;1.20;1.00;;;12.10;99.90;;;;;;4984419;28;20438;-78
2020/12/22 11:24:00;;;;;;;1.03;0.80;;;12.10;99.90;;;;;;4983766;28;20593;-79
2020/12/22 11:26:29;;;;;;;1.93;1.37;;;12.10;99.90;;;;;;4982066;28;20464;-80
2020/12/22 11:29:00;;;;;;;0.90;0.73;;;12.10;99.90;;;;;;4982013;28;20756;-84
2020/12/22 11:31:28;;;;;;;1.10;0.80;;;12.10;99.90;;;;;;4981271;28;20488;-81
2020/12/22 11:33:55;;;;;;;1.30;0.70;;;12.20;99.90;;;;;;4981726;28;20430;-80
2020/12/22 11:36:26;;;;;;;3.73;0.77;;;12.20;99.90;;;;;;4981285;28;20519;-81
2020/12/22 11:38:54;;;;;;;1.43;0.90;;;12.30;99.90;;;;;;4979624;28;20425;-80
2020/12/22 11:41:24;;;;;;;2.07;1.27;;;12.40;99.90;;;;;;4980412;28;20508;-78
2020/12/22 11:43:52;;;;;;;2.70;1.10;;;12.40;99.90;;;;;;4977565;28;20480;-77
2020/12/22 11:46:20;;;;;;;2.10;0.73;;;12.40;99.90;;;;;;4978164;28;20437;-80
2020/12/22 11:48:50;;;;;;;1.60;1.50;;;12.40;99.90;;;;;;4981570;28;20776;-78
2020/12/22 11:51:17;;;;;;;2.60;1.00;;;12.30;99.90;;;;;;4975200;28;20390;-78
2020/12/22 11:53:45;;;;;;;0.90;0.70;;;12.30;99.90;;;;;;4965427;28;20432;-80
2020/12/22 11:56:13;;;;;;;2.33;0.80;;;12.30;99.90;;;;;;4954378;28;20843;-78
2020/12/22 11:58:40;;;;;;;1.23;0.90;;;12.40;99.90;;;;;;4966972;28;20418;-79
2020/12/22 12:01:08;;;;;;;1.30;0.87;;;12.40;99.90;;;;;;4964877;28;20407;-79
2020/12/22 12:03:35;;;;;;;1.07;0.80;;;12.50;99.90;;;;;;4974616;28;20457;-79
2020/12/22 12:06:03;;;;;;;1.20;0.90;;;12.50;99.90;;;;;;4990112;28;20793;-80
2020/12/22 12:08:31;;;;;;;1.40;1.10;;;12.50;99.90;;;;;;4983149;28;20453;-77
2020/12/22 12:10:59;;;;;;;1.93;1.00;;;12.60;99.90;;;;;;4980771;28;20500;-82
2020/12/22 12:13:26;;;;;;;0.93;0.83;;;12.60;99.90;;;;;;4980383;28;20402;-81
2020/12/22 12:15:53;;;;;;;1.40;0.80;;;12.70;99.90;;;;;;4972353;28;20515;-79
2020/12/22 12:18:20;;;;;;;1.83;0.90;;;12.70;99.90;;;;;;4959936;28;20428;-80
2020/12/22 12:20:48;;;;;;;1.53;1.07;;;12.80;99.90;;;;;;4960204;29;20989;-79
2020/12/22 12:23:15;;;;;;;1.00;0.83;;;12.90;99.90;;;;;;4972818;28;20441;-79
2020/12/22 12:25:57;;;;;;;1.53;1.23;;;13.00;99.90;;;;;;4975986;29;20409;-77
2020/12/22 12:28:25;;;;;;;2.60;1.50;;;13.10;99.90;;;;;;4985127;28;20482;-78
2020/12/22 12:30:52;;;;;;;1.53;0.70;;;13.20;99.90;;;;;;4995486;28;20398;-79
2020/12/22 12:33:20;;;;;;;1.20;0.70;;;13.20;99.90;;;;;;4982285;28;20474;-79
2020/12/22 12:35:48;;;;;;;0.90;0.70;;;13.20;99.90;;;;;;4965841;28;20426;-81
2020/12/22 12:38:15;;;;;;;0.90;0.60;;;13.20;99.90;;;;;;4968171;28;20432;-81
2020/12/22 12:40:42;;;;;;;3.97;2.03;;;13.30;99.90;;;;;;4976791;28;20503;-77
2020/12/22 12:43:09;;;;;;;2.20;1.40;;;13.40;99.90;;;;;;4979346;28;20443;-78
2020/12/22 12:45:37;;;;;;;1.10;1.00;;;13.50;99.90;;;;;;4981595;28;20432;-79
2020/12/22 12:48:04;;;;;;;1.70;1.07;;;13.60;99.90;;;;;;4980187;28;20471;-78
2020/12/22 12:50:31;;;;;;;2.00;1.47;;;13.60;99.90;;;;;;4979272;28;20424;-79
2020/12/22 12:52:58;;;;;;;1.93;1.20;;;13.50;99.90;;;;;;4968128;28;20436;-80
2020/12/22 12:55:32;;;;;;;1.33;0.97;;;13.50;99.90;;;;;;4960254;28;20414;-79
2020/12/22 12:57:59;;;;;;;1.90;0.83;;;13.60;99.90;;;;;;4952187;28;20439;-79
2020/12/22 13:00:26;;;;;;;1.77;0.97;;;13.70;99.90;;;;;;4964993;28;20432;-77